createdAt,value
2018-07-31T00:00:10.735Z,18.52
2018-07-31T00:01:10.732Z,18.72
2018-07-31T00:02:10.708Z,18.76
2018-07-31T00:03:10.705Z,18.79
2018-07-31T00:04:10.724Z,18.65
2018-07-31T00:05:10.667Z,18.65
2018-07-31T00:06:10.654Z,18.65
2018-07-31T00:07:10.689Z,18.49
2018-07-31T00:08:10.638Z,18.55
2018-07-31T00:09:10.635Z,18.70
2018-07-31T00:10:10.612Z,18.67
2018-07-31T00:11:10.603Z,18.74
2018-07-31T00:12:10.594Z,18.70
2018-07-31T00:13:10.574Z,18.72
2018-07-31T00:14:10.555Z,18.67
2018-07-31T00:15:10.536Z,18.65
2018-07-31T00:16:10.550Z,18.73
2018-07-31T00:17:10.516Z,18.67
2018-07-31T00:18:10.511Z,18.64
2018-07-31T00:19:10.489Z,18.62
2018-07-31T00:20:10.476Z,18.50
2018-07-31T00:21:10.476Z,18.49
2018-07-31T00:22:10.450Z,18.42
2018-07-31T00:23:10.441Z,18.33
2018-07-31T00:24:10.428Z,18.28
2018-07-31T00:25:10.406Z,18.29
2018-07-31T00:26:10.393Z,18.22
2018-07-31T00:27:10.383Z,18.13
2018-07-31T00:28:10.377Z,18.10
2018-07-31T00:29:10.365Z,18.04
2018-07-31T00:30:10.342Z,18.04
2018-07-31T00:31:10.362Z,17.97
2018-07-31T00:32:10.339Z,18.06
2018-07-31T00:33:10.310Z,17.95
2018-07-31T00:34:10.303Z,17.94
2018-07-31T00:35:10.278Z,18.04
2018-07-31T00:36:10.261Z,18.12
2018-07-31T00:37:10.255Z,18.13
2018-07-31T00:38:10.246Z,18.27
2018-07-31T00:39:10.232Z,18.28
2018-07-31T00:40:10.220Z,18.33
2018-07-31T00:41:10.201Z,18.36
2018-07-31T00:42:10.195Z,18.37
2018-07-31T00:43:10.191Z,18.28
2018-07-31T00:44:10.169Z,18.31
2018-07-31T00:45:10.151Z,18.28
2018-07-31T00:46:10.136Z,18.34
2018-07-31T00:47:10.121Z,18.29
2018-07-31T00:48:10.114Z,18.13
2018-07-31T00:49:10.101Z,18.10
2018-07-31T00:50:10.085Z,18.06
2018-07-31T00:51:10.069Z,18.02
2018-07-31T00:52:10.053Z,17.91
2018-07-31T00:53:10.044Z,17.87
2018-07-31T00:54:10.036Z,17.89
2018-07-31T00:55:10.021Z,17.87
2018-07-31T00:56:10.005Z,17.88
2018-07-31T00:57:09.989Z,17.87
2018-07-31T00:58:09.979Z,17.84
2018-07-31T00:59:09.963Z,17.79
2018-07-31T01:00:09.954Z,17.76
2018-07-31T01:01:09.960Z,17.81
2018-07-31T01:02:09.922Z,17.85
2018-07-31T01:03:09.909Z,17.82
2018-07-31T01:04:09.902Z,17.76
2018-07-31T01:05:09.883Z,17.87
2018-07-31T01:06:09.867Z,17.88
2018-07-31T01:07:09.864Z,17.84
2018-07-31T01:08:09.838Z,17.88
2018-07-31T01:09:09.843Z,17.81
2018-07-31T01:10:09.816Z,17.71
2018-07-31T01:11:09.803Z,17.70
2018-07-31T01:12:09.790Z,17.76
2018-07-31T01:13:09.782Z,17.79
2018-07-31T01:14:09.768Z,17.82
2018-07-31T01:15:09.752Z,17.81
2018-07-31T01:16:09.739Z,17.89
2018-07-31T01:17:09.733Z,17.87
2018-07-31T01:18:09.713Z,17.87
2018-07-31T01:19:09.697Z,17.73
2018-07-31T01:20:09.688Z,17.71
2018-07-31T01:21:09.665Z,17.84
2018-07-31T01:22:09.662Z,17.89
2018-07-31T01:23:09.646Z,17.91
2018-07-31T01:24:09.630Z,17.92
2018-07-31T01:25:09.615Z,17.99
2018-07-31T01:26:09.598Z,17.99
2018-07-31T01:27:09.594Z,18.02
2018-07-31T01:28:09.575Z,17.87
2018-07-31T01:29:09.566Z,17.87
2018-07-31T01:30:09.547Z,17.88
2018-07-31T01:31:09.534Z,17.84
2018-07-31T01:32:09.569Z,17.74
2018-07-31T01:33:09.510Z,17.70
2018-07-31T01:34:09.507Z,17.66
2018-07-31T01:35:09.475Z,17.66
2018-07-31T01:36:09.474Z,17.55
2018-07-31T01:37:09.461Z,17.57
2018-07-31T01:38:09.440Z,17.67
2018-07-31T01:39:09.421Z,17.66
2018-07-31T01:40:09.414Z,17.67
2018-07-31T01:41:09.404Z,17.64
2018-07-31T01:42:09.385Z,17.69
2018-07-31T01:43:09.379Z,17.71
2018-07-31T01:44:09.360Z,17.81
2018-07-31T01:45:09.345Z,17.70
2018-07-31T01:46:09.341Z,17.66
2018-07-31T01:47:09.321Z,17.81
2018-07-31T01:48:09.306Z,17.76
2018-07-31T01:49:09.300Z,17.84
2018-07-31T01:50:09.280Z,17.78
2018-07-31T01:51:09.268Z,17.78
2018-07-31T01:52:09.245Z,17.73
2018-07-31T01:53:09.233Z,17.78
2018-07-31T01:54:09.232Z,17.63
2018-07-31T01:55:09.210Z,17.67
2018-07-31T01:56:09.204Z,17.66
2018-07-31T01:57:09.184Z,17.63
2018-07-31T01:58:09.175Z,17.67
2018-07-31T01:59:09.156Z,17.53
2018-07-31T02:00:09.144Z,17.50
2018-07-31T02:01:09.139Z,17.48
2018-07-31T02:02:09.117Z,17.51
2018-07-31T02:03:09.101Z,17.62
2018-07-31T02:04:09.096Z,17.64
2018-07-31T02:05:09.079Z,17.66
2018-07-31T02:06:09.068Z,17.46
2018-07-31T02:07:09.041Z,17.63
2018-07-31T02:08:09.038Z,17.67
2018-07-31T02:09:09.022Z,17.51
2018-07-31T02:10:09.015Z,17.50
2018-07-31T02:11:08.994Z,17.50
2018-07-31T02:12:08.980Z,17.41
2018-07-31T02:13:08.972Z,17.54
2018-07-31T02:14:08.955Z,17.54
2018-07-31T02:15:08.936Z,17.53
2018-07-31T02:16:08.939Z,17.59
2018-07-31T02:17:08.936Z,17.55
2018-07-31T02:18:08.897Z,17.50
2018-07-31T02:19:08.888Z,17.40
2018-07-31T02:20:08.868Z,17.47
2018-07-31T02:21:08.858Z,17.43
2018-07-31T02:22:08.840Z,17.32
2018-07-31T02:23:08.831Z,17.17
2018-07-31T02:24:08.811Z,17.15
2018-07-31T02:25:08.804Z,17.17
2018-07-31T02:26:08.792Z,17.17
2018-07-31T02:27:08.769Z,17.07
2018-07-31T02:28:08.838Z,17.00
2018-07-31T02:29:08.747Z,17.04
2018-07-31T02:30:08.731Z,17.06
2018-07-31T02:31:08.721Z,16.96
2018-07-31T02:32:08.704Z,16.96
2018-07-31T02:33:08.688Z,17.04
2018-07-31T02:34:08.685Z,17.06
2018-07-31T02:35:08.671Z,17.00
2018-07-31T02:36:08.652Z,17.07
2018-07-31T02:37:08.636Z,17.04
2018-07-31T02:38:08.617Z,16.99
2018-07-31T02:39:08.612Z,17.06
2018-07-31T02:40:08.602Z,17.08
2018-07-31T02:41:08.592Z,17.17
2018-07-31T02:42:08.591Z,17.15
2018-07-31T02:43:08.556Z,17.18
2018-07-31T02:44:08.546Z,17.20
2018-07-31T02:45:08.534Z,17.25
2018-07-31T02:46:08.516Z,17.22
2018-07-31T02:47:08.502Z,17.15
2018-07-31T02:48:08.488Z,17.17
2018-07-31T02:49:08.481Z,17.18
2018-07-31T02:50:08.451Z,17.10
2018-07-31T02:51:08.442Z,17.10
2018-07-31T02:52:08.429Z,17.07
2018-07-31T02:53:08.423Z,17.00
2018-07-31T02:54:08.397Z,17.04
2018-07-31T02:55:08.382Z,17.03
2018-07-31T02:56:08.422Z,16.95
2018-07-31T02:57:08.378Z,17.00
2018-07-31T02:58:08.367Z,17.04
2018-07-31T02:59:08.332Z,17.04
2018-07-31T03:00:08.326Z,17.10
2018-07-31T03:01:08.306Z,17.15
2018-07-31T03:02:08.310Z,17.22
2018-07-31T03:03:08.278Z,17.11
2018-07-31T03:04:08.275Z,17.14
2018-07-31T03:05:08.252Z,17.18
2018-07-31T03:06:08.230Z,17.14
2018-07-31T03:07:08.220Z,17.14
2018-07-31T03:08:08.285Z,17.17
2018-07-31T03:09:08.193Z,17.14
2018-07-31T03:10:08.183Z,17.17
2018-07-31T03:11:08.172Z,17.18
2018-07-31T03:12:08.163Z,17.26
2018-07-31T03:13:08.134Z,17.29
2018-07-31T03:14:08.126Z,17.29
2018-07-31T03:15:08.104Z,17.25
2018-07-31T03:16:08.120Z,17.15
2018-07-31T03:17:08.088Z,17.15
2018-07-31T03:18:08.069Z,17.18
2018-07-31T03:19:08.049Z,17.20
2018-07-31T03:20:08.041Z,17.30
2018-07-31T03:21:08.026Z,17.36
2018-07-31T03:22:08.014Z,17.33
2018-07-31T03:23:07.992Z,17.44
2018-07-31T03:24:07.975Z,17.44
2018-07-31T03:25:07.965Z,17.43
2018-07-31T03:26:07.953Z,17.47
2018-07-31T03:27:07.938Z,17.54
2018-07-31T03:28:07.966Z,17.43
2018-07-31T03:29:07.910Z,17.43
2018-07-31T03:30:07.894Z,17.50
2018-07-31T03:31:07.878Z,17.43
2018-07-31T03:32:07.866Z,17.47
2018-07-31T03:33:07.856Z,17.47
2018-07-31T03:34:07.833Z,17.50
2018-07-31T03:35:07.825Z,17.46
2018-07-31T03:36:07.815Z,17.43
2018-07-31T03:37:07.796Z,17.35
2018-07-31T03:38:07.785Z,17.25
2018-07-31T03:39:07.773Z,17.14
2018-07-31T03:40:07.756Z,17.08
2018-07-31T03:41:07.744Z,17.00
2018-07-31T03:42:07.730Z,16.99
2018-07-31T03:43:07.718Z,16.90
2018-07-31T03:44:07.701Z,16.83
2018-07-31T03:45:07.681Z,16.85
2018-07-31T03:46:07.666Z,16.86
2018-07-31T03:47:07.659Z,16.78
2018-07-31T03:48:07.643Z,16.71
2018-07-31T03:49:07.627Z,16.68
2018-07-31T03:50:07.661Z,16.67
2018-07-31T03:51:07.602Z,16.68
2018-07-31T03:52:07.586Z,16.67
2018-07-31T03:53:07.573Z,16.65
2018-07-31T03:54:07.554Z,16.65
2018-07-31T03:55:07.548Z,16.71
2018-07-31T03:56:07.526Z,16.67
2018-07-31T03:57:07.514Z,16.68
2018-07-31T03:58:07.506Z,16.73
2018-07-31T03:59:07.493Z,16.63
2018-07-31T04:00:07.474Z,16.63
2018-07-31T04:01:07.455Z,16.55
2018-07-31T04:02:07.448Z,16.56
2018-07-31T04:03:07.426Z,16.58
2018-07-31T04:04:07.416Z,16.52
2018-07-31T04:05:07.411Z,16.53
2018-07-31T04:06:07.387Z,16.44
2018-07-31T04:07:07.375Z,16.42
2018-07-31T04:08:07.362Z,16.45
2018-07-31T04:09:07.342Z,16.41
2018-07-31T04:10:07.332Z,16.33
2018-07-31T04:11:07.320Z,16.44
2018-07-31T04:12:07.303Z,16.38
2018-07-31T04:13:07.288Z,16.35
2018-07-31T04:14:07.281Z,16.34
2018-07-31T04:15:07.260Z,16.41
2018-07-31T04:16:07.247Z,16.40
2018-07-31T04:17:07.265Z,16.44
2018-07-31T04:18:07.219Z,16.48
2018-07-31T04:19:07.205Z,16.59
2018-07-31T04:20:07.189Z,16.62
2018-07-31T04:21:07.170Z,16.68
2018-07-31T04:22:07.164Z,16.65
2018-07-31T04:23:07.148Z,16.81
2018-07-31T04:24:07.134Z,16.75
2018-07-31T04:25:07.123Z,16.74
2018-07-31T04:26:07.101Z,16.83
2018-07-31T04:27:07.089Z,16.83
2018-07-31T04:28:07.072Z,16.98
2018-07-31T04:29:07.063Z,17.06
2018-07-31T04:30:07.070Z,16.99
2018-07-31T04:31:07.032Z,17.06
2018-07-31T04:32:07.015Z,17.04
2018-07-31T04:33:07.005Z,16.98
2018-07-31T04:34:06.989Z,17.00
2018-07-31T04:35:06.976Z,17.03
2018-07-31T04:36:07.004Z,16.98
2018-07-31T04:37:06.967Z,16.92
2018-07-31T04:38:06.931Z,16.89
2018-07-31T04:39:06.919Z,16.81
2018-07-31T04:40:06.911Z,16.85
2018-07-31T04:41:06.904Z,16.90
2018-07-31T04:42:06.878Z,16.90
2018-07-31T04:43:06.862Z,16.90
2018-07-31T04:44:06.858Z,16.86
2018-07-31T04:45:06.830Z,16.85
2018-07-31T04:46:06.820Z,16.86
2018-07-31T04:47:06.804Z,16.83
2018-07-31T04:48:06.792Z,16.85
2018-07-31T04:49:06.775Z,16.85
2018-07-31T04:50:06.766Z,16.98
2018-07-31T04:51:06.754Z,17.00
2018-07-31T04:52:06.734Z,17.13
2018-07-31T04:53:06.721Z,17.15
2018-07-31T04:54:06.714Z,17.15
2018-07-31T04:55:06.693Z,17.28
2018-07-31T04:56:06.677Z,17.30
2018-07-31T04:57:06.665Z,17.32
2018-07-31T04:58:06.654Z,17.44
2018-07-31T04:59:06.641Z,17.44
2018-07-31T05:00:06.625Z,17.47
2018-07-31T05:01:06.613Z,17.54
2018-07-31T05:02:06.597Z,17.53
2018-07-31T05:03:06.584Z,17.59
2018-07-31T05:04:06.571Z,17.51
2018-07-31T05:05:06.555Z,17.59
2018-07-31T05:06:06.539Z,17.57
2018-07-31T05:07:06.526Z,17.55
2018-07-31T05:08:06.513Z,17.59
2018-07-31T05:09:06.497Z,17.59
2018-07-31T05:10:06.482Z,17.67
2018-07-31T05:11:06.511Z,17.74
2018-07-31T05:12:06.457Z,17.73
2018-07-31T05:13:06.440Z,17.70
2018-07-31T05:14:06.434Z,17.79
2018-07-31T05:15:06.417Z,17.85
2018-07-31T05:16:06.402Z,18.03
2018-07-31T05:17:06.389Z,18.25
2018-07-31T05:18:06.462Z,18.43
2018-07-31T05:19:06.361Z,18.67
2018-07-31T05:20:06.348Z,18.77
2018-07-31T05:21:06.340Z,18.84
2018-07-31T05:22:06.322Z,18.92
2018-07-31T05:23:06.310Z,18.92
2018-07-31T05:24:06.294Z,18.83
2018-07-31T05:25:06.342Z,18.77
2018-07-31T05:26:06.279Z,18.80
2018-07-31T05:27:06.256Z,18.80
2018-07-31T05:28:06.243Z,18.76
2018-07-31T05:29:06.237Z,18.72
2018-07-31T05:30:06.221Z,18.68
2018-07-31T05:31:06.208Z,18.74
2018-07-31T05:32:06.198Z,18.76
2018-07-31T05:33:06.180Z,18.82
2018-07-31T05:34:06.163Z,18.82
2018-07-31T05:35:06.150Z,18.91
2018-07-31T05:36:06.138Z,18.82
2018-07-31T05:37:06.125Z,19.01
2018-07-31T05:38:06.114Z,19.01
2018-07-31T05:39:06.094Z,19.10
2018-07-31T05:40:06.088Z,19.14
2018-07-31T05:41:06.079Z,19.20
2018-07-31T05:42:06.052Z,19.24
2018-07-31T05:43:06.047Z,19.35
2018-07-31T05:44:06.052Z,19.65
2018-07-31T05:45:06.024Z,19.86
2018-07-31T05:46:06.028Z,20.08
2018-07-31T05:47:05.995Z,20.31
2018-07-31T05:48:05.985Z,20.38
2018-07-31T05:49:05.972Z,20.56
2018-07-31T05:50:05.960Z,20.56
2018-07-31T05:51:05.947Z,20.72
2018-07-31T05:52:05.942Z,20.68
2018-07-31T05:53:05.931Z,20.72
2018-07-31T05:54:05.910Z,20.66
2018-07-31T05:55:05.913Z,20.74
2018-07-31T05:56:05.881Z,20.79
2018-07-31T05:57:05.875Z,21.04
2018-07-31T05:58:05.863Z,21.24
2018-07-31T05:59:05.850Z,21.29
2018-07-31T06:00:05.840Z,21.61
2018-07-31T06:01:05.821Z,21.74
2018-07-31T06:02:05.817Z,21.99
2018-07-31T06:03:05.802Z,22.12
2018-07-31T06:04:05.792Z,22.27
2018-07-31T06:05:05.782Z,22.44
2018-07-31T06:06:05.769Z,22.37
2018-07-31T06:07:05.763Z,22.49
2018-07-31T06:08:05.744Z,22.57
2018-07-31T06:09:05.734Z,22.60
2018-07-31T06:10:05.721Z,22.64
2018-07-31T06:11:05.719Z,22.69
2018-07-31T06:12:05.697Z,22.69
2018-07-31T06:13:05.695Z,22.69
2018-07-31T06:14:05.682Z,22.77
2018-07-31T06:15:05.676Z,22.92
2018-07-31T06:16:05.661Z,22.89
2018-07-31T06:17:05.652Z,22.90
2018-07-31T06:18:05.640Z,22.93
2018-07-31T06:19:05.627Z,22.89
2018-07-31T06:20:05.612Z,22.92
2018-07-31T06:21:05.601Z,23.11
2018-07-31T06:22:05.601Z,23.12
2018-07-31T06:23:05.579Z,23.17
2018-07-31T06:24:05.593Z,23.24
2018-07-31T06:25:05.560Z,23.24
2018-07-31T06:26:05.548Z,23.24
2018-07-31T06:27:05.608Z,23.32
2018-07-31T06:28:05.540Z,23.35
2018-07-31T06:29:05.539Z,23.34
2018-07-31T06:30:05.508Z,23.29
2018-07-31T06:31:05.499Z,23.35
2018-07-31T06:32:05.486Z,23.31
2018-07-31T06:33:05.482Z,23.39
2018-07-31T06:34:05.480Z,23.46
2018-07-31T06:35:05.458Z,23.39
2018-07-31T06:36:05.444Z,23.47
2018-07-31T06:37:05.445Z,23.52
2018-07-31T06:38:05.431Z,23.65
2018-07-31T06:39:05.425Z,23.62
2018-07-31T06:40:05.412Z,23.65
2018-07-31T06:41:05.401Z,23.70
2018-07-31T06:42:05.389Z,23.82
2018-07-31T06:43:05.380Z,23.94
2018-07-31T06:44:05.364Z,24.12
2018-07-31T06:45:05.361Z,24.22
2018-07-31T06:46:05.356Z,24.17
2018-07-31T06:47:05.339Z,24.29
2018-07-31T06:48:05.338Z,24.45
2018-07-31T06:49:05.325Z,24.50
2018-07-31T06:50:05.315Z,24.59
2018-07-31T06:51:05.305Z,24.79
2018-07-31T06:52:05.290Z,24.87
2018-07-31T06:53:05.293Z,24.98
2018-07-31T06:54:05.277Z,25.01
2018-07-31T06:55:05.273Z,25.07
2018-07-31T06:56:05.261Z,25.10
2018-07-31T06:57:05.251Z,25.27
2018-07-31T06:58:05.241Z,25.30
2018-07-31T06:59:05.225Z,25.38
2018-07-31T07:00:05.225Z,25.59
2018-07-31T07:01:05.216Z,25.71
2018-07-31T07:02:05.255Z,25.89
2018-07-31T07:03:05.197Z,25.97
2018-07-31T07:04:05.188Z,25.97
2018-07-31T07:05:05.178Z,26.05
2018-07-31T07:06:05.207Z,26.08
2018-07-31T07:07:05.165Z,26.17
2018-07-31T07:08:05.159Z,26.17
2018-07-31T07:09:05.146Z,26.39
2018-07-31T07:10:05.153Z,26.55
2018-07-31T07:11:05.130Z,26.55
2018-07-31T07:12:05.126Z,26.55
2018-07-31T07:13:05.114Z,26.67
2018-07-31T07:14:05.111Z,26.58
2018-07-31T07:15:05.094Z,26.59
2018-07-31T07:16:05.098Z,26.54
2018-07-31T07:17:05.084Z,26.65
2018-07-31T07:18:05.072Z,26.80
2018-07-31T07:19:05.059Z,26.86
2018-07-31T07:20:05.060Z,26.89
2018-07-31T07:21:05.050Z,27.10
2018-07-31T07:22:05.049Z,27.10
2018-07-31T07:23:05.050Z,27.29
2018-07-31T07:24:05.030Z,27.51
2018-07-31T07:25:05.015Z,27.47
2018-07-31T07:26:05.020Z,27.64
2018-07-31T07:27:05.005Z,27.64
2018-07-31T07:28:05.021Z,27.76
2018-07-31T07:29:04.993Z,27.91
2018-07-31T07:30:04.989Z,28.14
2018-07-31T07:31:04.973Z,28.41
2018-07-31T07:32:04.969Z,28.75
2018-07-31T07:33:04.963Z,28.96
2018-07-31T07:34:05.089Z,29.28
2018-07-31T07:35:04.944Z,29.38
2018-07-31T07:36:04.949Z,29.71
2018-07-31T07:37:04.938Z,30.00
2018-07-31T07:38:04.938Z,30.38
2018-07-31T07:39:04.931Z,30.59
2018-07-31T07:40:04.968Z,30.57
2018-07-31T07:41:04.912Z,30.74
2018-07-31T07:42:04.912Z,31.11
2018-07-31T07:43:04.902Z,31.43
2018-07-31T07:44:04.902Z,31.46
2018-07-31T07:45:04.896Z,31.58
2018-07-31T07:46:04.886Z,31.73
2018-07-31T07:47:04.889Z,32.03
2018-07-31T07:48:04.879Z,32.15
2018-07-31T07:49:04.878Z,32.22
2018-07-31T07:50:04.877Z,32.51
2018-07-31T07:51:04.873Z,32.79
2018-07-31T07:52:04.867Z,33.01
2018-07-31T07:53:04.860Z,32.86
2018-07-31T07:54:04.932Z,32.80
2018-07-31T07:55:04.851Z,32.91
2018-07-31T07:56:04.849Z,32.85
2018-07-31T07:57:04.848Z,32.88
2018-07-31T07:58:04.850Z,32.66
2018-07-31T07:59:04.843Z,32.69
2018-07-31T08:00:04.832Z,32.61
2018-07-31T08:01:04.831Z,32.42
2018-07-31T08:02:04.828Z,32.59
2018-07-31T08:03:04.825Z,32.64
2018-07-31T08:04:04.917Z,32.79
2018-07-31T08:05:04.822Z,33.03
2018-07-31T08:06:04.822Z,32.93
2018-07-31T08:07:04.809Z,33.29
2018-07-31T08:08:04.812Z,33.06
2018-07-31T08:09:04.806Z,33.49
2018-07-31T08:10:04.806Z,33.58
2018-07-31T08:11:04.808Z,33.78
2018-07-31T08:12:04.800Z,33.64
2018-07-31T08:13:04.801Z,33.36
2018-07-31T08:14:04.793Z,33.01
2018-07-31T08:15:04.825Z,33.22
2018-07-31T08:16:04.790Z,33.57
2018-07-31T08:17:04.793Z,33.67
2018-07-31T08:18:04.777Z,33.85
2018-07-31T08:19:04.783Z,34.02
2018-07-31T08:20:04.778Z,33.98
2018-07-31T08:21:04.779Z,33.97
2018-07-31T08:22:04.795Z,34.00
2018-07-31T08:23:04.771Z,33.98
2018-07-31T08:24:04.768Z,34.00
2018-07-31T08:25:04.768Z,33.86
2018-07-31T08:26:04.764Z,33.53
2018-07-31T08:27:04.761Z,33.60
2018-07-31T08:28:04.761Z,33.60
2018-07-31T08:29:04.764Z,33.58
2018-07-31T08:30:04.755Z,33.55
2018-07-31T08:31:04.756Z,33.52
2018-07-31T08:32:04.755Z,33.61
2018-07-31T08:33:04.749Z,33.52
2018-07-31T08:34:04.742Z,33.51
2018-07-31T08:35:04.742Z,33.53
2018-07-31T08:36:04.740Z,33.65
2018-07-31T08:37:04.767Z,33.76
2018-07-31T08:38:04.736Z,33.49
2018-07-31T08:39:04.742Z,33.45
2018-07-31T08:40:04.729Z,33.07
2018-07-31T08:41:04.730Z,32.69
2018-07-31T08:42:04.730Z,32.71
2018-07-31T08:43:04.723Z,32.73
2018-07-31T08:44:04.729Z,33.06
2018-07-31T08:45:04.737Z,33.43
2018-07-31T08:46:04.723Z,33.80
2018-07-31T08:47:04.718Z,34.08
2018-07-31T08:48:04.715Z,34.22
2018-07-31T08:49:04.715Z,34.38
2018-07-31T08:50:04.732Z,34.60
2018-07-31T08:51:04.708Z,34.61
2018-07-31T08:52:04.709Z,34.66
2018-07-31T08:53:04.699Z,34.48
2018-07-31T08:54:04.706Z,34.56
2018-07-31T08:55:04.699Z,34.73
2018-07-31T08:56:04.702Z,34.79
2018-07-31T08:57:04.768Z,34.63
2018-07-31T08:58:04.700Z,34.57
2018-07-31T08:59:04.694Z,34.74
2018-07-31T09:00:04.693Z,34.76
2018-07-31T09:01:04.693Z,34.64
2018-07-31T09:02:04.693Z,34.14
2018-07-31T09:03:04.689Z,33.83
2018-07-31T09:04:04.695Z,33.71
2018-07-31T09:05:04.689Z,33.97
2018-07-31T09:06:04.696Z,34.41
2018-07-31T09:07:04.683Z,34.56
2018-07-31T09:08:04.732Z,34.70
2018-07-31T09:09:04.680Z,34.64
2018-07-31T09:10:04.681Z,34.74
2018-07-31T09:11:04.690Z,34.63
2018-07-31T09:12:04.674Z,34.79
2018-07-31T09:13:04.680Z,34.70
2018-07-31T09:14:04.674Z,34.79
2018-07-31T09:15:04.670Z,34.69
2018-07-31T09:16:04.670Z,34.73
2018-07-31T09:17:04.664Z,35.10
2018-07-31T09:18:04.667Z,35.30
2018-07-31T09:19:04.663Z,35.44
2018-07-31T09:20:04.668Z,35.73
2018-07-31T09:21:04.658Z,35.50
2018-07-31T09:22:04.680Z,35.45
2018-07-31T09:23:04.655Z,35.42
2018-07-31T09:24:04.654Z,35.36
2018-07-31T09:25:04.657Z,35.40
2018-07-31T09:26:04.652Z,35.54
2018-07-31T09:27:04.651Z,35.52
2018-07-31T09:28:04.645Z,35.10
2018-07-31T09:29:04.648Z,35.42
2018-07-31T09:30:04.648Z,35.30
2018-07-31T09:31:04.761Z,35.25
2018-07-31T09:32:04.652Z,35.23
2018-07-31T09:33:04.642Z,35.40
2018-07-31T09:34:04.643Z,35.42
2018-07-31T09:35:04.639Z,35.45
2018-07-31T09:36:04.699Z,35.55
2018-07-31T09:37:04.635Z,35.48
2018-07-31T09:38:04.686Z,35.74
2018-07-31T09:39:04.633Z,35.81
2018-07-31T09:40:04.675Z,35.89
2018-07-31T09:41:04.629Z,35.88
2018-07-31T09:42:04.632Z,35.77
2018-07-31T09:43:04.629Z,35.64
2018-07-31T09:44:04.623Z,35.20
2018-07-31T09:45:04.629Z,34.86
2018-07-31T09:46:04.623Z,34.79
2018-07-31T09:47:04.620Z,34.95
2018-07-31T09:48:04.617Z,34.96
2018-07-31T09:49:04.622Z,35.10
2018-07-31T09:50:04.624Z,35.14
2018-07-31T09:51:04.616Z,35.17
2018-07-31T09:52:04.613Z,35.26
2018-07-31T09:53:04.616Z,35.35
2018-07-31T09:54:04.620Z,35.35
2018-07-31T09:55:04.613Z,35.37
2018-07-31T09:56:04.610Z,35.23
2018-07-31T09:57:04.607Z,35.48
2018-07-31T09:58:04.608Z,35.55
2018-07-31T09:59:04.607Z,35.62
2018-07-31T10:00:04.607Z,35.72
2018-07-31T10:01:04.615Z,35.47
2018-07-31T10:02:04.597Z,35.40
2018-07-31T10:03:04.614Z,35.47
2018-07-31T10:04:04.603Z,35.28
2018-07-31T10:05:04.671Z,35.45
2018-07-31T10:06:04.597Z,35.52
2018-07-31T10:07:04.597Z,35.82
2018-07-31T10:08:04.598Z,35.82
2018-07-31T10:09:04.649Z,35.55
2018-07-31T10:10:04.597Z,35.47
2018-07-31T10:11:04.594Z,35.66
2018-07-31T10:12:04.653Z,35.74
2018-07-31T10:13:04.591Z,35.50
2018-07-31T10:14:04.590Z,35.17
2018-07-31T10:15:04.594Z,35.11
2018-07-31T10:16:04.589Z,35.47
2018-07-31T10:17:04.588Z,35.64
2018-07-31T10:18:04.716Z,35.74
2018-07-31T10:19:04.591Z,35.89
2018-07-31T10:20:04.586Z,35.77
2018-07-31T10:21:04.591Z,35.54
2018-07-31T10:22:04.594Z,35.57
2018-07-31T10:23:04.588Z,35.48
2018-07-31T10:24:04.598Z,35.37
2018-07-31T10:25:04.585Z,35.39
2018-07-31T10:26:04.596Z,35.45
2018-07-31T10:27:04.595Z,35.39
2018-07-31T10:28:04.588Z,35.25
2018-07-31T10:29:04.594Z,35.18
2018-07-31T10:30:04.594Z,35.48
2018-07-31T10:31:04.675Z,35.69
2018-07-31T10:32:04.597Z,35.92
2018-07-31T10:33:04.598Z,36.03
2018-07-31T10:34:04.595Z,36.11
2018-07-31T10:35:04.600Z,36.20
2018-07-31T10:36:04.598Z,36.38
2018-07-31T10:37:04.614Z,36.31
2018-07-31T10:38:04.607Z,36.26
2018-07-31T10:39:04.604Z,36.29
2018-07-31T10:40:04.607Z,36.30
2018-07-31T10:41:04.610Z,36.38
2018-07-31T10:42:04.610Z,36.39
2018-07-31T10:43:04.610Z,36.31
2018-07-31T10:44:04.651Z,36.26
2018-07-31T10:45:04.627Z,36.26
2018-07-31T10:46:04.624Z,36.43
2018-07-31T10:47:04.623Z,36.52
2018-07-31T10:48:04.623Z,36.54
2018-07-31T10:49:04.679Z,36.03
2018-07-31T10:50:04.623Z,36.11
2018-07-31T10:51:04.659Z,36.23
2018-07-31T10:52:04.632Z,36.39
2018-07-31T10:53:04.636Z,36.60
2018-07-31T10:54:04.642Z,36.68
2018-07-31T10:55:04.697Z,36.79
2018-07-31T10:56:04.652Z,36.75
2018-07-31T10:57:04.652Z,36.87
2018-07-31T10:58:04.711Z,36.73
2018-07-31T10:59:04.662Z,36.80
2018-07-31T11:00:04.777Z,37.01
2018-07-31T11:01:04.668Z,37.19
2018-07-31T11:02:04.668Z,37.35
2018-07-31T11:03:04.699Z,37.24
2018-07-31T11:04:04.775Z,37.10
2018-07-31T11:05:04.690Z,37.09
2018-07-31T11:06:04.687Z,37.12
2018-07-31T11:07:04.694Z,37.04
2018-07-31T11:08:04.693Z,37.09
2018-07-31T11:09:04.701Z,36.99
2018-07-31T11:10:04.707Z,37.12
2018-07-31T11:11:04.709Z,37.17
2018-07-31T11:12:04.714Z,37.23
2018-07-31T11:13:04.723Z,37.24
2018-07-31T11:14:04.724Z,37.32
2018-07-31T11:15:04.731Z,37.61
2018-07-31T11:16:04.737Z,37.35
2018-07-31T11:17:04.743Z,37.21
2018-07-31T11:18:04.743Z,37.39
2018-07-31T11:19:04.753Z,37.47
2018-07-31T11:20:04.761Z,37.66
2018-07-31T11:21:04.844Z,37.62
2018-07-31T11:22:04.765Z,37.92
2018-07-31T11:23:04.772Z,38.03
2018-07-31T11:24:04.782Z,38.05
2018-07-31T11:25:04.795Z,38.12
2018-07-31T11:26:04.791Z,37.99
2018-07-31T11:27:04.807Z,37.96
2018-07-31T11:28:04.804Z,38.04
2018-07-31T11:29:04.817Z,38.08
2018-07-31T11:30:04.827Z,37.89
2018-07-31T11:31:04.834Z,37.98
2018-07-31T11:32:04.836Z,37.77
2018-07-31T11:33:04.909Z,37.74
2018-07-31T11:34:04.853Z,37.77
2018-07-31T11:35:04.856Z,37.98
2018-07-31T11:36:04.862Z,37.81
2018-07-31T11:37:04.875Z,37.93
2018-07-31T11:38:04.878Z,38.04
2018-07-31T11:39:04.884Z,38.10
2018-07-31T11:40:04.901Z,38.36
2018-07-31T11:41:04.900Z,38.60
2018-07-31T11:42:04.923Z,38.86
2018-07-31T11:43:04.924Z,38.92
2018-07-31T11:44:04.985Z,38.57
2018-07-31T11:45:04.930Z,38.71
2018-07-31T11:46:05.032Z,38.53
2018-07-31T11:47:04.951Z,38.29
2018-07-31T11:48:04.955Z,38.18
2018-07-31T11:49:04.968Z,37.89
2018-07-31T11:50:05.095Z,37.68
2018-07-31T11:51:04.987Z,37.47
2018-07-31T11:52:04.996Z,36.83
2018-07-31T11:53:04.999Z,36.17
2018-07-31T11:54:05.013Z,36.27
2018-07-31T11:55:05.013Z,37.01
2018-07-31T11:56:05.032Z,37.50
2018-07-31T11:57:05.032Z,37.86
2018-07-31T11:58:05.035Z,38.12
2018-07-31T11:59:05.045Z,38.30
2018-07-31T12:00:05.051Z,38.39
2018-07-31T12:01:05.061Z,38.44
2018-07-31T12:02:05.070Z,38.58
2018-07-31T12:03:05.070Z,38.68
2018-07-31T12:04:05.116Z,38.66
2018-07-31T12:05:05.092Z,38.86
2018-07-31T12:06:05.102Z,38.89
2018-07-31T12:07:05.105Z,39.03
2018-07-31T12:08:05.121Z,39.14
2018-07-31T12:09:05.122Z,39.01
2018-07-31T12:10:05.134Z,38.99
2018-07-31T12:11:05.135Z,39.09
2018-07-31T12:12:05.147Z,39.54
2018-07-31T12:13:05.150Z,39.46
2018-07-31T12:14:05.374Z,39.52
2018-07-31T12:15:05.179Z,39.51
2018-07-31T12:16:05.246Z,39.65
2018-07-31T12:17:05.189Z,39.84
2018-07-31T12:18:05.202Z,40.04
2018-07-31T12:19:05.230Z,40.23
2018-07-31T12:20:05.218Z,39.92
2018-07-31T12:21:05.231Z,40.05
2018-07-31T12:22:05.241Z,40.27
2018-07-31T12:23:05.243Z,40.30
2018-07-31T12:24:05.256Z,40.27
2018-07-31T12:25:05.259Z,40.27
2018-07-31T12:26:05.325Z,40.15
2018-07-31T12:27:05.367Z,40.27
2018-07-31T12:28:05.298Z,40.05
2018-07-31T12:29:05.307Z,40.10
2018-07-31T12:30:05.307Z,40.24
2018-07-31T12:31:05.320Z,40.57
2018-07-31T12:32:05.334Z,40.30
2018-07-31T12:33:05.409Z,40.30
2018-07-31T12:34:05.353Z,40.12
2018-07-31T12:35:05.370Z,39.86
2018-07-31T12:36:05.375Z,39.70
2018-07-31T12:37:05.391Z,39.52
2018-07-31T12:38:05.405Z,39.17
2018-07-31T12:39:05.404Z,39.10
2018-07-31T12:40:05.411Z,39.28
2018-07-31T12:41:05.427Z,39.13
2018-07-31T12:42:05.426Z,39.33
2018-07-31T12:43:05.439Z,39.76
2018-07-31T12:44:05.487Z,39.92
2018-07-31T12:45:05.459Z,39.83
2018-07-31T12:46:05.474Z,39.61
2018-07-31T12:47:05.478Z,39.95
2018-07-31T12:48:05.481Z,39.99
2018-07-31T12:49:05.490Z,39.95
2018-07-31T12:50:05.539Z,40.00
2018-07-31T12:51:05.510Z,39.95
2018-07-31T12:52:05.519Z,40.00